Terminal Aerodrome Forecast
Issued by NWS

Home | Current Version | Previous Version | Text Only | Print | Product List | Glossary On
Versions: 1 2 3 4 5 6 7 8 9 10 11 12 13 14 15 16 17 18 19 20 21 22 23
000
FTPA31 PHFO 080500
TAFOGG
TAF
PHOG 080528Z 0806/0906 05011KT P6SM VCSH SCT025 BKN040
     FM082000 05019G27KT P6SM FEW025 SCT050
     FM090500 04011KT P6SM FEW025 SCT050
      AMD LTD TO VIS AND WIND 0809/0816=

USA.gov is the U.S. government's official web portal to all federal, state and local government web resources and services.